Bookmark and Share
Track history (hours):
 

Goliah

More information available from US FCC via Universal Licensing System and Coast Guard Vessel Documentation Center.

Last reported at 2014-Apr-20 23:33 UTC. Time now 2014-Apr-20 23:58 UTC.
Position N 47°35' W 122°21'.

Length 33 m; draft 4.8 m.

Type: Tug. MMSI: 366898250.

NotesDate/timePositionNaut miles runAvg speedWind from/ knotsBaromVisibWave heightAir tempDewpointWater temp
2014-Apr-20 23:33N 47°35' W 122°21'0 0.2
2014-Apr-20 23:31N 47°35' W 122°21'0 0.0
2014-Apr-20 22:33N 47°35' W 122°21'0 0.2
2014-Apr-20 22:31N 47°35' W 122°21'0 0.0
2014-Apr-20 21:33N 47°35' W 122°21'0 0.2
2014-Apr-20 21:31N 47°35' W 122°21'0 0.0
2014-Apr-20 20:33N 47°35' W 122°21'0 0.0
2014-Apr-20 20:31N 47°35' W 122°21'0 0.0
2014-Apr-20 19:33N 47°35' W 122°21'0 0.2
2014-Apr-20 19:31N 47°35' W 122°21'1 1.1
2014-Apr-20 18:33N 47°36' W 122°22'0 7.9
2014-Apr-20 18:31N 47°36' W 122°23'7 6.9
2014-Apr-20 17:33N 47°34' W 122°32'1 4.3
2014-Apr-20 17:15N 47°34' W 122°30'7 9.7
2014-Apr-20 16:33N 47°36' W 122°21'0 3.6
2014-Apr-20 16:31N 47°36' W 122°21'0 0.5
2014-Apr-20 15:33N 47°35' W 122°21'0 0.0
2014-Apr-20 15:30N 47°35' W 122°21'0 0.0
2014-Apr-20 14:33N 47°35' W 122°21'0 0.0
2014-Apr-20 14:30N 47°35' W 122°21'0 0.2
2014-Apr-20 13:33N 47°35' W 122°21'0 0.1
2014-Apr-20 13:30N 47°35' W 122°21'0 0.0
2014-Apr-20 12:33N 47°35' W 122°21'0 0.0
2014-Apr-20 12:30N 47°35' W 122°21'0 0.0
2014-Apr-20 11:33N 47°35' W 122°21'0 0.0
2014-Apr-20 11:30N 47°35' W 122°21'0 0.0
2014-Apr-20 10:33N 47°35' W 122°21'0 0.0
2014-Apr-20 10:29N 47°35' W 122°21'0 0.0
2014-Apr-20 09:33N 47°35' W 122°21'0 0.0
2014-Apr-20 09:30N 47°35' W 122°21'0 0.0
2014-Apr-20 08:33N 47°35' W 122°21'0 0.0
2014-Apr-20 08:30N 47°35' W 122°21'0 0.0
2014-Apr-20 07:33N 47°35' W 122°21'0 0.1
2014-Apr-20 07:30N 47°35' W 122°21'0 0.0
2014-Apr-20 06:33N 47°35' W 122°21'0 0.1
2014-Apr-20 06:30N 47°35' W 122°21'1 1.3
2014-Apr-20 05:50N 47°35' W 122°22'2 6.8
2014-Apr-20 05:33N 47°33' W 122°20'0 0.1
2014-Apr-20 04:33N 47°33' W 122°20'0 2.0
2014-Apr-20 04:29N 47°33' W 122°20'2 2.4
2014-Apr-20 03:34N 47°35' W 122°22'0 3.4
2014-Apr-20 03:30N 47°35' W 122°22'0 0.4
2014-Apr-20 02:33N 47°35' W 122°22'0 1.6
2014-Apr-20 02:29N 47°35' W 122°22'1 1.2
2014-Apr-20 01:33N 47°36' W 122°21'0 0.2
2014-Apr-20 01:29N 47°36' W 122°21'1 0.7
2014-Apr-20 00:33N 47°36' W 122°21'1 9.3
2014-Apr-20 00:30N 47°36' W 122°21'0 0.2
2014-Apr-19 23:34N 47°35' W 122°21'0 5.0
2014-Apr-19 23:30N 47°35' W 122°21'0 0.2
2014-Apr-19 22:33N 47°35' W 122°21'0 0.0
2014-Apr-19 22:30N 47°35' W 122°21'0 0.5
2014-Apr-19 21:33N 47°35' W 122°21'0 0.0
2014-Apr-19 21:29N 47°35' W 122°21'3 2.4
2014-Apr-19 20:26N 47°35' W 122°25'7 7.9
2014-Apr-19 19:33N 47°28' W 122°24'7 7.4
2014-Apr-19 18:33N 47°21' W 122°24'4 3.5
2014-Apr-19 17:33N 47°18' W 122°26'0 0.0
2014-Apr-19 16:33N 47°18' W 122°26'0 0.0
2014-Apr-19 15:33N 47°18' W 122°26'0 0.0
2014-Apr-19 14:33N 47°18' W 122°26'0 0.0
2014-Apr-19 13:33N 47°18' W 122°26'0 0.0
2014-Apr-19 12:34N 47°18' W 122°26'0 0.0
2014-Apr-19 11:33N 47°18' W 122°26'0 0.0
2014-Apr-19 10:33N 47°18' W 122°26'0 0.0
2014-Apr-19 09:21N 47°18' W 122°26'0 0.0
2014-Apr-19 08:31N 47°18' W 122°26'0 0.0
2014-Apr-19 07:30N 47°18' W 122°26'0 0.0
2014-Apr-19 06:33N 47°18' W 122°26'0 0.0
2014-Apr-19 05:22N 47°18' W 122°26'0 0.0
2014-Apr-19 04:32N 47°18' W 122°26'0 0.0
2014-Apr-19 03:33N 47°18' W 122°26'0 0.0
2014-Apr-19 02:33N 47°18' W 122°26'0 0.0
2014-Apr-19 01:26N 47°18' W 122°26'0 0.0
2014-Apr-19 00:33N 47°18' W 122°26'0 0.0
2014-Apr-18 23:18N 47°18' W 122°26'1 1.9
2014-Apr-18 22:33N 47°16' W 122°25'1 0.6
2014-Apr-18 21:33N 47°17' W 122°25'1 0.6
2014-Apr-18 20:17N 47°18' W 122°26'0 0.0
2014-Apr-18 19:15N 47°18' W 122°26'0 0.0
2014-Apr-18 18:33N 47°18' W 122°26'0 0.0
2014-Apr-18 17:25N 47°18' W 122°26'0 0.0
2014-Apr-18 16:32N 47°18' W 122°26'0 0.0
2014-Apr-18 15:32N 47°18' W 122°26'0 0.0
2014-Apr-18 14:30N 47°18' W 122°26'0 0.0
2014-Apr-18 13:30N 47°18' W 122°26'0 0.1
2014-Apr-18 12:05N 47°17' W 122°26'0 0.1
2014-Apr-18 10:33N 47°17' W 122°26'1 1.3
2014-Apr-18 09:30N 47°16' W 122°24'4 4.3
2014-Apr-18 08:33N 47°20' W 122°26'7 6.8
2014-Apr-18 07:33N 47°27' W 122°25'1 8.2
2014-Apr-18 07:28N 47°28' W 122°25'7 7.9
2014-Apr-18 06:33N 47°35' W 122°26'1 7.9
2014-Apr-18 06:29N 47°35' W 122°25'3 3.2
2014-Apr-18 05:33N 47°35' W 122°21'0 0.0
2014-Apr-18 05:33N 47°35' W 122°21'0 0.0
2014-Apr-18 04:33N 47°35' W 122°21'0 0.0
2014-Apr-18 04:29N 47°35' W 122°21'0 0.0
2014-Apr-18 03:33N 47°35' W 122°21'0 0.0
2014-Apr-18 03:28N 47°35' W 122°21'0 0.0
2014-Apr-18 02:33N 47°35' W 122°21'0 0.0
2014-Apr-18 02:28N 47°35' W 122°21'0 0.0
2014-Apr-18 01:33N 47°35' W 122°21'0 0.0
2014-Apr-18 01:29N 47°35' W 122°21'  
2014-Apr-14 17:10N 47°35' W 122°21'0 0.0
2014-Apr-14 15:34N 47°35' W 122°21'9 8.7
2014-Apr-14 14:34N 47°27' W 122°24'1010.0
2014-Apr-14 13:34N 47°17' W 122°25'1 0.5
2014-Apr-14 11:34N 47°17' W 122°26'1 0.6
2014-Apr-14 10:33N 47°18' W 122°26'0 0.0
2014-Apr-14 09:33N 47°18' W 122°26'0 0.0
2014-Apr-14 08:33N 47°18' W 122°26'3 2.6
2014-Apr-14 07:33N 47°16' W 122°23'3 2.8
2014-Apr-14 06:33N 47°18' W 122°26'0 0.1
2014-Apr-14 05:33N 47°17' W 122°26'1148.2
2014-Apr-14 05:20N 47°28' W 122°25'7 7.8
2014-Apr-14 04:25N 47°35' W 122°25'3 2.8
2014-Apr-14 03:30N 47°35' W 122°21'0 0.0
2014-Apr-14 02:19N 47°35' W 122°21'0 0.0
2014-Apr-14 01:28N 47°35' W 122°21'0 0.0
2014-Apr-13 22:33N 47°35' W 122°21'0 0.0
2014-Apr-13 21:32N 47°35' W 122°21'0 0.0
2014-Apr-13 20:33N 47°35' W 122°21'3 3.3
2014-Apr-13 19:33N 47°34' W 122°26'8 7.7
2014-Apr-13 18:33N 47°27' W 122°23'7 7.0
2014-Apr-13 17:33N 47°20' W 122°25'4 3.5
2014-Apr-13 16:32N 47°16' W 122°24'0 0.0
2014-Apr-13 15:10N 47°16' W 122°24'0 0.0
2014-Apr-13 14:27N 47°16' W 122°24'0 0.0
2014-Apr-13 13:21N 47°16' W 122°24'2 1.9
2014-Apr-13 12:32N 47°15' W 122°23'3 2.9
2014-Apr-13 11:33N 47°17' W 122°26'1 0.7
2014-Apr-13 10:33N 47°17' W 122°25'1 0.6
2014-Apr-13 09:29N 47°16' W 122°25'5 5.7
2014-Apr-13 08:33N 47°21' W 122°25'8 8.2
2014-Apr-13 07:33N 47°30' W 122°26'7 6.8
2014-Apr-13 06:33N 47°36' W 122°21'0 0.4
2014-Apr-13 05:33N 47°35' W 122°21'0 0.0
2014-Apr-13 04:33N 47°35' W 122°21'0 0.0
2014-Apr-13 03:33N 47°35' W 122°21'0 0.0
2014-Apr-13 02:33N 47°35' W 122°21'0 0.2
2014-Apr-13 01:33N 47°36' W 122°21'1 0.7
2014-Apr-13 00:33N 47°35' W 122°21'0 0.3
2014-Apr-12 23:33N 47°35' W 122°21'0 0.3
2014-Apr-12 22:33N 47°35' W 122°21'0 0.0
2014-Apr-12 21:33N 47°35' W 122°21'0 0.0
2014-Apr-12 20:52N 47°35' W 122°21'0 0.0
2014-Apr-12 20:33N 47°35' W 122°21'0 0.0
2014-Apr-12 20:32N 47°35' W 122°21'0 0.0
2014-Apr-12 19:33N 47°35' W 122°21'0 0.0
2014-Apr-12 19:32N 47°35' W 122°21'0 0.0
2014-Apr-12 18:33N 47°35' W 122°21'0 0.0
2014-Apr-12 18:32N 47°35' W 122°21'0 0.0
2014-Apr-12 17:33N 47°35' W 122°21'0 0.3
2014-Apr-12 17:32N 47°35' W 122°21'0 0.0
2014-Apr-12 16:33N 47°35' W 122°21'0 0.0
2014-Apr-12 16:31N 47°35' W 122°21'8 8.8
2014-Apr-12 15:33N 47°43' W 122°27'0 9.7
2014-Apr-12 15:31N 47°43' W 122°27'1010.1
2014-Apr-12 14:33N 47°53' W 122°29'0 8.7
2014-Apr-12 14:31N 47°53' W 122°30'33 8.3
2014-Apr-12 10:28N 48°19' W 123°02'1011.0
2014-Apr-12 09:33N 48°24' W 122°49'9 8.6
2014-Apr-12 08:33N 48°32' W 122°45'9 8.6
2014-Apr-12 07:33N 48°41' W 122°44'1110.5
2014-Apr-12 06:31N 48°52' W 122°46'0 0.1
2014-Apr-12 05:33N 48°52' W 122°46'6 5.9
2014-Apr-12 04:33N 48°46' W 122°45'9 9.1
2014-Apr-12 03:33N 48°38' W 122°38'6 6.3
2014-Apr-12 02:33N 48°31' W 122°37'0 0.1
2014-Apr-12 01:33N 48°31' W 122°37'0 0.0
2014-Apr-12 00:33N 48°31' W 122°37'0 0.0
2014-Apr-11 23:33N 48°31' W 122°37'0 0.0
2014-Apr-11 22:33N 48°31' W 122°37'0 0.0
2014-Apr-11 21:33N 48°31' W 122°37'0 0.0
2014-Apr-11 20:33N 48°31' W 122°37'0 0.0
2014-Apr-11 19:33N 48°31' W 122°37'0 0.0
2014-Apr-11 18:33N 48°31' W 122°37'0 0.0
2014-Apr-11 17:33N 48°31' W 122°37'0 0.0
2014-Apr-11 16:33N 48°31' W 122°37'0 0.0
2014-Apr-11 15:33N 48°31' W 122°37'0 0.0
2014-Apr-11 14:33N 48°31' W 122°37'0 0.0
2014-Apr-11 13:33N 48°31' W 122°37'0 0.0
2014-Apr-11 12:33N 48°31' W 122°37'0 0.0
2014-Apr-11 11:33N 48°31' W 122°37'0 0.0
2014-Apr-11 10:33N 48°31' W 122°37'0 0.0
2014-Apr-11 09:33N 48°31' W 122°37'0 0.0
2014-Apr-11 08:34N 48°31' W 122°37'0 0.0
2014-Apr-11 07:33N 48°31' W 122°37'0 0.0
2014-Apr-11 06:33N 48°31' W 122°37'0 0.0
2014-Apr-11 05:33N 48°31' W 122°37'0 0.0
2014-Apr-11 04:33N 48°31' W 122°37'0 0.0
2014-Apr-11 03:33N 48°31' W 122°37'0 0.0
2014-Apr-11 02:33N 48°31' W 122°37'0 0.0
2014-Apr-11 01:33N 48°31' W 122°37'0 0.0
2014-Apr-11 00:33N 48°31' W 122°37'6 5.6
2014-Apr-10 23:33N 48°37' W 122°37'  

Dump ship's entire track history

sailing weather and tide predictions

Goliah — WDD5908 — position and weather